Time;durP1;ratioP1;P1;durP2;ratioP2;P2;SDS_P1;SDS_P2;PMS_P1;PMS_P2;Temp;Humidity;BMP_temperature;BMP_pressure;BME280_temperature;BME280_humidity;BME280_pressure;Samples;Min_cycle;Max_cycle;Signal;HPM_P1;HPM_P2
2021/06/20 00:01:39;;;;;;;31.67;11.90;;;;;;;;;;5052837;28;20759;-58
2021/06/20 00:04:05;;;;;;;29.92;12.52;;;;;;;;;;5056593;28;20079;-61
2021/06/20 00:06:37;;;;;;;32.08;12.18;;;;;;;;;;5055490;28;20032;-59
2021/06/20 00:09:07;;;;;;;28.17;13.15;;;;;;;;;;5057120;28;20028;-60
2021/06/20 00:11:35;;;;;;;37.85;13.27;;;;;;;;;;5042762;28;20579;-60
2021/06/20 00:14:01;;;;;;;35.13;12.80;;;;;;;;;;5054019;28;20031;-61
2021/06/20 00:16:32;;;;;;;37.88;13.90;;;;;;;;;;5055005;28;20053;-59
2021/06/20 00:19:03;;;;;;;26.95;11.88;;;;;;;;;;5055702;28;20028;-60
2021/06/20 00:21:29;;;;;;;33.58;12.82;;;;;;;;;;5057016;28;20084;-60
2021/06/20 00:23:57;;;;;;;35.28;12.70;;;;;;;;;;5041976;28;20040;-57
2021/06/20 00:26:28;;;;;;;47.60;13.48;;;;;;;;;;5055256;28;20040;-59
2021/06/20 00:28:59;;;;;;;43.88;14.95;;;;;;;;;;5056130;28;20028;-60
2021/06/20 00:31:32;;;;;;;56.25;15.10;;;;;;;;;;5057318;28;20032;-60
2021/06/20 00:34:00;;;;;;;52.78;13.48;;;;;;;;;;5043838;28;20067;-58
2021/06/20 00:36:26;;;;;;;248.32;23.83;;;;;;;;;;5055267;28;20143;-59
2021/06/20 00:38:56;;;;;;;133.77;16.48;;;;;;;;;;5055229;28;20093;-56
2021/06/20 00:41:22;;;;;;;45.15;14.18;;;;;;;;;;5055092;28;20039;-53
2021/06/20 00:43:47;;;;;;;83.90;15.85;;;;;;;;;;5059616;28;20032;-53
2021/06/20 00:46:13;;;;;;;80.85;15.38;;;;;;;;;;5053952;28;20664;-55
2021/06/20 00:48:38;;;;;;;88.28;15.00;;;;;;;;;;5057684;28;20531;-52
2021/06/20 00:51:04;;;;;;;97.78;14.43;;;;;;;;;;5055409;28;20036;-56
2021/06/20 00:53:34;;;;;;;54.35;13.82;;;;;;;;;;5055029;28;20075;-56
2021/06/20 00:56:05;;;;;;;42.33;12.38;;;;;;;;;;5056409;28;20406;-55
2021/06/20 00:58:33;;;;;;;46.35;14.05;;;;;;;;;;5054979;28;20039;-55
2021/06/20 01:00:59;;;;;;;38.67;11.95;;;;;;;;;;5054327;28;20047;-55
2021/06/20 01:03:34;;;;;;;36.00;11.65;;;;;;;;;;5052729;28;20075;-53
2021/06/20 01:06:00;;;;;;;37.22;10.73;;;;;;;;;;5053716;28;20032;-54
2021/06/20 01:08:26;;;;;;;34.80;12.73;;;;;;;;;;5054138;28;20028;-53
2021/06/20 01:10:52;;;;;;;30.90;10.20;;;;;;;;;;5053613;28;20094;-53
2021/06/20 01:13:20;;;;;;;40.63;11.45;;;;;;;;;;5053556;28;20039;-53
2021/06/20 01:15:47;;;;;;;29.00;11.30;;;;;;;;;;5069774;28;20052;-52
2021/06/20 01:18:16;;;;;;;32.60;12.35;;;;;;;;;;5055574;28;20143;-54
2021/06/20 01:20:45;;;;;;;32.03;10.90;;;;;;;;;;5054291;28;20163;-54
2021/06/20 01:23:13;;;;;;;41.08;11.00;;;;;;;;;;5054531;28;20164;-54
2021/06/20 01:25:41;;;;;;;39.30;10.50;;;;;;;;;;5056122;28;20173;-55
2021/06/20 01:28:13;;;;;;;37.35;10.95;;;;;;;;;;5056783;28;20028;-54
2021/06/20 01:30:40;;;;;;;35.50;10.82;;;;;;;;;;5048472;28;20537;-54
2021/06/20 01:33:11;;;;;;;32.58;10.52;;;;;;;;;;5055116;28;20028;-54
2021/06/20 01:35:38;;;;;;;26.45;9.50;;;;;;;;;;5058157;28;20111;-54
2021/06/20 01:38:05;;;;;;;35.20;9.68;;;;;;;;;;5059376;28;20114;-53
2021/06/20 01:40:35;;;;;;;38.92;10.52;;;;;;;;;;5057696;28;20024;-55
2021/06/20 01:43:03;;;;;;;34.20;9.55;;;;;;;;;;5069922;28;20081;-55
2021/06/20 01:45:30;;;;;;;35.03;10.15;;;;;;;;;;5056259;28;20031;-55
2021/06/20 01:47:57;;;;;;;26.67;8.50;;;;;;;;;;5058096;28;20044;-52
2021/06/20 01:50:24;;;;;;;20.73;8.05;;;;;;;;;;5058222;28;20032;-58
2021/06/20 01:53:19;;;;;;;30.90;8.18;;;;;;;;;;5058214;28;20691;-51
2021/06/20 01:55:46;;;;;;;21.65;7.50;;;;;;;;;;5044333;28;20048;-55
2021/06/20 01:58:15;;;;;;;19.65;8.30;;;;;;;;;;5057192;28;20109;-52
2021/06/20 02:00:47;;;;;;;18.55;6.85;;;;;;;;;;5058753;28;20028;-55
2021/06/20 02:03:29;;;;;;;;;;;;;;;;;;;;;
2021/06/20 02:06:07;;;;;;;22.35;6.93;;;;;;;;;;5058884;28;20039;-53
2021/06/20 02:08:35;;;;;;;16.13;7.40;;;;;;;;;;5058697;28;20360;-55
2021/06/20 02:11:02;;;;;;;27.45;7.93;;;;;;;;;;5043996;28;20044;-53
2021/06/20 02:13:33;;;;;;;28.75;8.00;;;;;;;;;;5058553;28;20660;-55
2021/06/20 02:16:02;;;;;;;24.77;9.13;;;;;;;;;;5059069;28;20060;-55
2021/06/20 02:18:29;;;;;;;21.67;7.78;;;;;;;;;;5044831;28;20041;-56
2021/06/20 02:20:55;;;;;;;23.83;7.82;;;;;;;;;;5058525;28;20039;-55
2021/06/20 02:23:21;;;;;;;19.80;8.02;;;;;;;;;;5054311;28;20032;-57
2021/06/20 02:25:51;;;;;;;22.38;8.05;;;;;;;;;;5053530;28;20040;-55
2021/06/20 02:28:25;;;;;;;25.55;8.82;;;;;;;;;;5061155;28;20093;-56
2021/06/20 02:30:52;;;;;;;28.85;9.57;;;;;;;;;;5058678;28;20991;-56
2021/06/20 02:33:18;;;;;;;33.83;10.63;;;;;;;;;;5025817;28;20029;-56
2021/06/20 02:35:49;;;;;;;27.83;8.85;;;;;;;;;;5074249;28;20036;-57
2021/06/20 02:38:17;;;;;;;32.70;10.27;;;;;;;;;;5057102;28;20077;-58
2021/06/20 02:40:43;;;;;;;39.90;10.40;;;;;;;;;;5056737;28;20019;-56
2021/06/20 02:43:11;;;;;;;32.13;10.25;;;;;;;;;;5042405;28;20047;-57
2021/06/20 02:45:39;;;;;;;31.08;10.05;;;;;;;;;;5058200;28;20033;-57
2021/06/20 02:48:04;;;;;;;36.92;9.90;;;;;;;;;;5057223;28;20040;-59
2021/06/20 02:50:35;;;;;;;32.80;10.48;;;;;;;;;;5073185;28;20120;-57
2021/06/20 02:53:00;;;;;;;36.03;10.48;;;;;;;;;;5041619;28;22058;-57
2021/06/20 02:55:30;;;;;;;41.60;10.85;;;;;;;;;;5042982;28;20135;-56
2021/06/20 02:57:56;;;;;;;28.65;10.23;;;;;;;;;;5057711;28;20490;-57
2021/06/20 03:00:21;;;;;;;36.92;11.43;;;;;;;;;;5055457;28;20071;-57
2021/06/20 03:02:47;;;;;;;38.47;10.68;;;;;;;;;;5058024;28;20177;-58
2021/06/20 03:05:15;;;;;;;29.75;10.25;;;;;;;;;;5053700;28;20675;-57
2021/06/20 03:07:41;;;;;;;33.05;11.13;;;;;;;;;;5057279;28;20491;-58
2021/06/20 03:10:09;;;;;;;45.85;11.38;;;;;;;;;;5055524;28;20040;-59
2021/06/20 03:12:35;;;;;;;34.13;11.52;;;;;;;;;;5058475;28;20159;-58
2021/06/20 03:15:01;;;;;;;39.65;11.68;;;;;;;;;;5055241;28;20608;-59
2021/06/20 03:17:29;;;;;;;37.50;11.02;;;;;;;;;;5055638;28;20040;-58
2021/06/20 03:19:55;;;;;;;32.67;11.88;;;;;;;;;;5073565;28;20053;-58
2021/06/20 03:22:23;;;;;;;37.42;11.77;;;;;;;;;;5055690;28;20152;-58
2021/06/20 03:24:50;;;;;;;27.60;11.05;;;;;;;;;;5055400;28;20128;-57
2021/06/20 03:27:21;;;;;;;31.02;11.48;;;;;;;;;;5055808;28;20121;-58
2021/06/20 03:29:47;;;;;;;35.22;12.45;;;;;;;;;;5056395;28;20055;-58
2021/06/20 03:32:16;;;;;;;45.05;13.65;;;;;;;;;;5060649;28;20059;-58
2021/06/20 03:34:44;;;;;;;44.72;13.23;;;;;;;;;;5053605;28;20036;-58
2021/06/20 03:37:12;;;;;;;40.63;14.70;;;;;;;;;;5054275;28;20669;-58
2021/06/20 03:39:38;;;;;;;44.30;13.55;;;;;;;;;;5040690;28;20028;-59
2021/06/20 03:42:06;;;;;;;53.50;15.00;;;;;;;;;;5055376;28;20529;-58
2021/06/20 03:44:32;;;;;;;44.38;15.13;;;;;;;;;;5057299;28;20068;-58
2021/06/20 03:47:00;;;;;;;48.88;15.60;;;;;;;;;;5055592;28;20040;-58
2021/06/20 03:49:31;;;;;;;54.45;16.85;;;;;;;;;;5055977;28;20036;-58
2021/06/20 03:51:56;;;;;;;47.42;15.82;;;;;;;;;;5054433;28;20036;-59
2021/06/20 03:54:24;;;;;;;53.65;16.50;;;;;;;;;;5041403;28;20154;-59
2021/06/20 03:56:53;;;;;;;40.83;14.82;;;;;;;;;;5055905;28;20392;-59
2021/06/20 03:59:21;;;;;;;47.00;16.40;;;;;;;;;;5044397;28;20387;-60
2021/06/20 04:01:49;;;;;;;38.13;15.90;;;;;;;;;;5056126;28;20127;-59
2021/06/20 04:04:15;;;;;;;45.53;16.92;;;;;;;;;;5070106;28;20040;-59
2021/06/20 04:06:42;;;;;;;44.00;17.17;;;;;;;;;;5056221;28;21280;-59
2021/06/20 04:09:10;;;;;;;43.05;16.77;;;;;;;;;;5054844;28;20064;-58
2021/06/20 04:11:36;;;;;;;43.13;16.33;;;;;;;;;;5057807;28;20119;-59
2021/06/20 04:14:04;;;;;;;41.03;16.88;;;;;;;;;;5041641;28;20039;-59
2021/06/20 04:16:39;;;;;;;49.95;17.67;;;;;;;;;;5056799;28;20048;-59
2021/06/20 04:19:05;;;;;;;46.30;17.90;;;;;;;;;;5053977;28;20119;-59
2021/06/20 04:21:33;;;;;;;44.13;16.65;;;;;;;;;;5056960;28;20075;-58
2021/06/20 04:24:01;;;;;;;45.78;15.43;;;;;;;;;;5058840;28;20036;-59
2021/06/20 04:26:29;;;;;;;32.70;15.48;;;;;;;;;;5054948;28;20078;-60
2021/06/20 04:28:55;;;;;;;50.03;17.40;;;;;;;;;;5058759;28;20487;-60
2021/06/20 04:31:24;;;;;;;45.85;16.15;;;;;;;;;;5055079;28;20506;-57
2021/06/20 04:33:54;;;;;;;44.00;17.75;;;;;;;;;;5055581;28;20020;-59
2021/06/20 04:36:27;;;;;;;36.97;16.63;;;;;;;;;;5054328;28;20040;-57
2021/06/20 04:38:53;;;;;;;32.95;15.75;;;;;;;;;;5054923;28;20032;-59
2021/06/20 04:41:24;;;;;;;40.50;16.52;;;;;;;;;;5055440;28;20478;-58
2021/06/20 04:46:40;;;;;;;41.95;16.88;;;;;;;;;;5055559;28;20040;-58
2021/06/20 04:49:09;;;;;;;36.15;16.15;;;;;;;;;;5052081;28;20025;-59
2021/06/20 04:51:41;;;;;;;36.55;16.38;;;;;;;;;;5055779;28;20028;-58
2021/06/20 04:54:11;;;;;;;37.08;16.67;;;;;;;;;;5054631;28;20032;-60
2021/06/20 04:56:36;;;;;;;34.78;15.30;;;;;;;;;;5043254;28;20060;-60
2021/06/20 04:59:03;;;;;;;38.28;15.98;;;;;;;;;;5056883;28;20905;-59
2021/06/20 05:01:28;;;;;;;31.27;15.02;;;;;;;;;;5061300;28;20032;-60
2021/06/20 05:03:56;;;;;;;32.83;15.90;;;;;;;;;;5061981;28;20118;-59
2021/06/20 05:06:22;;;;;;;36.60;16.55;;;;;;;;;;5054460;28;20040;-59
2021/06/20 05:08:51;;;;;;;34.10;16.98;;;;;;;;;;5058275;28;20063;-58
2021/06/20 05:11:16;;;;;;;32.05;16.13;;;;;;;;;;5046753;28;20145;-58
2021/06/20 05:13:42;;;;;;;40.25;17.17;;;;;;;;;;5056352;28;20033;-59
2021/06/20 05:16:11;;;;;;;38.95;16.88;;;;;;;;;;5059479;28;20059;-60
2021/06/20 05:18:36;;;;;;;43.53;17.85;;;;;;;;;;5055831;28;20047;-59
2021/06/20 05:21:02;;;;;;;39.00;17.02;;;;;;;;;;5061679;28;20044;-58
2021/06/20 05:23:28;;;;;;;41.33;19.35;;;;;;;;;;5074301;28;20534;-58
2021/06/20 05:25:58;;;;;;;46.92;19.02;;;;;;;;;;5057404;28;20056;-58
2021/06/20 05:28:26;;;;;;;44.25;18.17;;;;;;;;;;5074406;28;20036;-59
2021/06/20 05:30:51;;;;;;;42.33;19.55;;;;;;;;;;5073328;28;21932;-59
2021/06/20 05:33:17;;;;;;;41.85;19.60;;;;;;;;;;5057167;28;20130;-58
2021/06/20 05:35:44;;;;;;;36.97;18.52;;;;;;;;;;5072731;28;22146;-59
2021/06/20 05:38:11;;;;;;;36.85;18.35;;;;;;;;;;5058960;28;20099;-59
2021/06/20 05:40:40;;;;;;;38.33;18.92;;;;;;;;;;5058376;28;20024;-60
2021/06/20 05:43:08;;;;;;;38.45;18.38;;;;;;;;;;5044030;28;20113;-58
2021/06/20 05:45:36;;;;;;;40.40;18.52;;;;;;;;;;5056158;28;20985;-58
2021/06/20 05:48:06;;;;;;;40.53;18.73;;;;;;;;;;5064007;28;20056;-58
2021/06/20 05:50:34;;;;;;;35.90;16.75;;;;;;;;;;5059853;28;20032;-59
2021/06/20 05:53:02;;;;;;;32.47;17.15;;;;;;;;;;5045723;28;21000;-58
2021/06/20 05:55:28;;;;;;;33.53;17.10;;;;;;;;;;5058576;28;20028;-59
2021/06/20 05:57:54;;;;;;;31.67;15.88;;;;;;;;;;5057544;28;20519;-59
2021/06/20 06:00:22;;;;;;;35.38;17.63;;;;;;;;;;5056662;28;20033;-59
2021/06/20 06:02:52;;;;;;;29.58;15.93;;;;;;;;;;5043204;28;21979;-58
2021/06/20 06:05:20;;;;;;;32.88;17.30;;;;;;;;;;5057927;28;20282;-59
2021/06/20 06:07:48;;;;;;;31.77;17.02;;;;;;;;;;5043548;28;20039;-59
2021/06/20 06:10:16;;;;;;;34.53;16.20;;;;;;;;;;5070745;28;20048;-59
2021/06/20 06:12:46;;;;;;;30.52;17.05;;;;;;;;;;5059350;28;20188;-59
2021/06/20 06:15:12;;;;;;;32.55;15.77;;;;;;;;;;5061727;28;20028;-58
2021/06/20 06:17:40;;;;;;;33.35;17.63;;;;;;;;;;5055037;28;20063;-59
2021/06/20 06:20:08;;;;;;;26.77;15.27;;;;;;;;;;5056514;28;22095;-59
2021/06/20 06:22:34;;;;;;;30.38;15.98;;;;;;;;;;5055237;28;20066;-60
2021/06/20 06:25:06;;;;;;;26.58;14.45;;;;;;;;;;5057428;28;20115;-60
2021/06/20 06:27:34;;;;;;;25.90;14.30;;;;;;;;;;5071520;28;20024;-59
2021/06/20 06:30:00;;;;;;;23.92;13.45;;;;;;;;;;5057821;28;20028;-60
2021/06/20 06:32:28;;;;;;;23.38;13.32;;;;;;;;;;5057971;28;20043;-59
2021/06/20 06:34:56;;;;;;;26.20;13.52;;;;;;;;;;5057575;28;20357;-61
2021/06/20 06:37:22;;;;;;;22.83;12.43;;;;;;;;;;5056429;28;20035;-59
2021/06/20 06:39:50;;;;;;;20.52;12.73;;;;;;;;;;5054763;28;21756;-60
2021/06/20 06:42:15;;;;;;;26.25;12.18;;;;;;;;;;5056560;28;20075;-60
2021/06/20 06:44:41;;;;;;;21.48;11.82;;;;;;;;;;5055794;28;20115;-60
2021/06/20 06:47:06;;;;;;;25.52;10.98;;;;;;;;;;5055730;28;20100;-57
2021/06/20 06:49:33;;;;;;;15.73;9.18;;;;;;;;;;5056117;28;21822;-59
2021/06/20 06:51:59;;;;;;;19.30;9.38;;;;;;;;;;5056895;28;20035;-59
2021/06/20 06:54:25;;;;;;;13.18;7.68;;;;;;;;;;5045301;28;20032;-59
2021/06/20 06:56:53;;;;;;;11.95;7.60;;;;;;;;;;5054917;28;20138;-58
2021/06/20 06:59:23;;;;;;;8.02;6.18;;;;;;;;;;5056497;28;20090;-58
2021/06/20 07:01:49;;;;;;;11.60;5.00;;;;;;;;;;5055323;28;20443;-59
2021/06/20 07:04:17;;;;;;;11.50;4.38;;;;;;;;;;5055936;28;20040;-59
2021/06/20 07:06:43;;;;;;;7.93;4.07;;;;;;;;;;5056460;28;20040;-60
2021/06/20 07:09:09;;;;;;;7.65;3.90;;;;;;;;;;5055479;28;20123;-58
2021/06/20 07:11:38;;;;;;;5.03;3.60;;;;;;;;;;5055194;28;20020;-59
2021/06/20 07:14:05;;;;;;;9.43;3.05;;;;;;;;;;5056465;28;20037;-58
2021/06/20 07:16:34;;;;;;;7.55;2.90;;;;;;;;;;5055673;28;20060;-59
2021/06/20 07:19:01;;;;;;;5.88;2.30;;;;;;;;;;5054713;28;20040;-58
2021/06/20 07:21:30;;;;;;;6.10;2.58;;;;;;;;;;5037882;28;20578;-59
2021/06/20 07:23:58;;;;;;;4.50;2.42;;;;;;;;;;5070575;28;20124;-58
2021/06/20 07:26:23;;;;;;;4.65;2.30;;;;;;;;;;5045840;28;21029;-60
2021/06/20 07:28:49;;;;;;;4.80;2.15;;;;;;;;;;5055369;28;20050;-59
2021/06/20 07:31:17;;;;;;;2.40;1.58;;;;;;;;;;5057353;28;20028;-59
2021/06/20 07:33:48;;;;;;;2.92;1.45;;;;;;;;;;5053635;28;20035;-60
2021/06/20 07:36:16;;;;;;;4.30;1.80;;;;;;;;;;5057019;28;20147;-59
2021/06/20 07:38:45;;;;;;;3.03;1.40;;;;;;;;;;5053073;28;20032;-59
2021/06/20 07:41:10;;;;;;;6.07;1.38;;;;;;;;;;5055800;28;20490;-59
2021/06/20 07:43:40;;;;;;;2.25;1.30;;;;;;;;;;5045924;28;20612;-59
2021/06/20 07:46:13;;;;;;;3.47;1.13;;;;;;;;;;5055659;28;20118;-60
2021/06/20 07:48:38;;;;;;;6.10;1.00;;;;;;;;;;5038755;28;20029;-61
2021/06/20 07:51:06;;;;;;;5.80;1.10;;;;;;;;;;5058010;28;20108;-61
2021/06/20 07:53:34;;;;;;;2.28;0.80;;;;;;;;;;5054688;28;20424;-58
2021/06/20 07:56:00;;;;;;;0.90;0.68;;;;;;;;;;5057162;28;20050;-60
2021/06/20 07:58:28;;;;;;;2.45;1.48;;;;;;;;;;5054496;28;20016;-60
2021/06/20 08:00:53;;;;;;;3.88;1.52;;;;;;;;;;5056085;28;20032;-59
2021/06/20 08:03:22;;;;;;;4.45;1.23;;;;;;;;;;5038626;28;20028;-59
2021/06/20 08:05:47;;;;;;;6.22;1.65;;;;;;;;;;5054866;28;20701;-59
2021/06/20 08:08:18;;;;;;;2.40;1.25;;;;;;;;;;5052962;28;20033;-59
2021/06/20 08:10:46;;;;;;;3.70;1.08;;;;;;;;;;5026318;28;20067;-58
2021/06/20 08:13:14;;;;;;;3.63;1.55;;;;;;;;;;5053545;28;20142;-59
2021/06/20 08:15:45;;;;;;;6.35;1.48;;;;;;;;;;5055131;28;20123;-60
2021/06/20 08:18:13;;;;;;;3.00;1.30;;;;;;;;;;5053621;28;21988;-59
2021/06/20 08:20:39;;;;;;;6.60;1.55;;;;;;;;;;5054937;28;20043;-59
2021/06/20 08:23:04;;;;;;;9.25;1.38;;;;;;;;;;5025456;28;20040;-60
2021/06/20 08:25:29;;;;;;;2.63;1.00;;;;;;;;;;5051909;28;20667;-60
2021/06/20 08:27:58;;;;;;;4.50;1.52;;;;;;;;;;5052429;28;22078;-60
2021/06/20 08:30:26;;;;;;;3.45;1.48;;;;;;;;;;5052223;28;20616;-61
2021/06/20 08:32:54;;;;;;;2.03;1.15;;;;;;;;;;5056162;28;20524;-60
2021/06/20 08:35:22;;;;;;;6.03;1.60;;;;;;;;;;5039666;28;20032;-59
2021/06/20 08:37:48;;;;;;;1.80;1.20;;;;;;;;;;5043477;28;20033;-60
2021/06/20 08:40:20;;;;;;;2.88;1.60;;;;;;;;;;5065408;28;20097;-60
2021/06/20 08:42:46;;;;;;;4.32;1.30;;;;;;;;;;5058821;28;20152;-62
2021/06/20 08:45:15;;;;;;;5.10;1.45;;;;;;;;;;5058879;28;20493;-60
2021/06/20 08:47:44;;;;;;;2.67;1.40;;;;;;;;;;5054918;28;20075;-60
2021/06/20 08:50:14;;;;;;;3.97;1.20;;;;;;;;;;5054917;28;20038;-58
2021/06/20 08:52:40;;;;;;;2.88;1.17;;;;;;;;;;5064239;28;20608;-58
2021/06/20 08:55:09;;;;;;;7.00;1.17;;;;;;;;;;5053577;28;20024;-59
2021/06/20 08:57:36;;;;;;;3.30;0.85;;;;;;;;;;5053859;28;20031;-60
2021/06/20 09:00:05;;;;;;;1.70;0.82;;;;;;;;;;5055015;28;20043;-58
2021/06/20 09:02:32;;;;;;;2.75;0.88;;;;;;;;;;5052562;28;20040;-59
2021/06/20 09:04:59;;;;;;;1.48;0.70;;;;;;;;;;5056192;28;20028;-59
2021/06/20 09:07:31;;;;;;;2.10;0.95;;;;;;;;;;5055414;28;20724;-59
2021/06/20 09:10:06;;;;;;;0.73;0.68;;;;;;;;;;5053569;28;20040;-59
2021/06/20 09:12:40;;;;;;;2.55;0.60;;;;;;;;;;5058523;28;20029;-60
2021/06/20 09:15:06;;;;;;;2.17;0.60;;;;;;;;;;5056747;28;20055;-61
2021/06/20 09:17:33;;;;;;;1.33;0.50;;;;;;;;;;5054935;28;21483;-61
2021/06/20 09:20:06;;;;;;;4.03;0.90;;;;;;;;;;5050347;28;20233;-59
2021/06/20 09:22:32;;;;;;;2.38;0.82;;;;;;;;;;5038239;28;20032;-60
2021/06/20 09:25:11;;;;;;;2.13;0.65;;;;;;;;;;5051665;28;20047;-60
2021/06/20 09:27:37;;;;;;;1.45;0.75;;;;;;;;;;5051326;28;20040;-61
2021/06/20 09:30:06;;;;;;;1.00;0.40;;;;;;;;;;5050059;28;20133;-60
2021/06/20 09:32:34;;;;;;;1.48;0.68;;;;;;;;;;5050363;28;20035;-61
2021/06/20 09:35:09;;;;;;;1.73;0.40;;;;;;;;;;5050475;28;20498;-60
2021/06/20 09:37:35;;;;;;;1.42;0.65;;;;;;;;;;5051665;28;20044;-62
2021/06/20 09:40:12;;;;;;;1.02;0.80;;;;;;;;;;5050902;28;20044;-60
2021/06/20 09:42:42;;;;;;;4.43;0.80;;;;;;;;;;5052847;28;20031;-60
2021/06/20 09:45:10;;;;;;;2.63;0.80;;;;;;;;;;5052919;28;21936;-59
2021/06/20 09:47:41;;;;;;;0.95;0.70;;;;;;;;;;5049345;28;20067;-60
2021/06/20 09:50:12;;;;;;;2.45;0.82;;;;;;;;;;5053673;28;20017;-61
2021/06/20 09:52:39;;;;;;;2.03;0.70;;;;;;;;;;5052569;28;20077;-61
2021/06/20 09:55:11;;;;;;;4.47;0.90;;;;;;;;;;5050971;28;20032;-61
2021/06/20 09:57:45;;;;;;;1.80;0.73;;;;;;;;;;5040594;28;20144;-61
2021/06/20 10:00:11;;;;;;;3.88;0.73;;;;;;;;;;5030881;28;20036;-62
2021/06/20 10:02:42;;;;;;;2.78;0.63;;;;;;;;;;5049881;28;20041;-63
2021/06/20 10:05:08;;;;;;;1.40;0.70;;;;;;;;;;5050880;28;20029;-62
2021/06/20 10:07:36;;;;;;;2.38;0.90;;;;;;;;;;5052915;28;20102;-63
2021/06/20 10:10:05;;;;;;;1.55;0.55;;;;;;;;;;5051580;28;20557;-62
2021/06/20 10:12:33;;;;;;;1.65;0.77;;;;;;;;;;5051658;28;20123;-59
2021/06/20 10:15:02;;;;;;;1.58;0.68;;;;;;;;;;5049619;28;21015;-62
2021/06/20 10:17:32;;;;;;;1.33;0.40;;;;;;;;;;5052474;28;20179;-61
2021/06/20 10:19:59;;;;;;;1.10;0.70;;;;;;;;;;5047551;28;20040;-62
2021/06/20 10:22:32;;;;;;;1.63;0.38;;;;;;;;;;5033655;28;20043;-62
2021/06/20 10:25:05;;;;;;;1.20;0.50;;;;;;;;;;5051216;28;20698;-62
2021/06/20 10:27:30;;;;;;;0.90;0.43;;;;;;;;;;5048930;28;20393;-63
2021/06/20 10:29:59;;;;;;;2.80;0.70;;;;;;;;;;5050778;28;20036;-63
2021/06/20 10:32:25;;;;;;;0.82;0.50;;;;;;;;;;5048663;28;20155;-61
2021/06/20 10:35:01;;;;;;;2.38;0.52;;;;;;;;;;5052405;28;20041;-61
2021/06/20 10:37:30;;;;;;;2.25;0.40;;;;;;;;;;5058298;28;20089;-64
2021/06/20 10:39:56;;;;;;;0.55;0.30;;;;;;;;;;5056933;28;20032;-61
2021/06/20 10:42:33;;;;;;;1.73;0.70;;;;;;;;;;5055673;28;20429;-63
2021/06/20 10:45:07;;;;;;;0.80;0.22;;;;;;;;;;5057705;28;20028;-61
2021/06/20 10:47:37;;;;;;;0.57;0.20;;;;;;;;;;5055830;28;20075;-61
2021/06/20 10:50:12;;;;;;;1.40;0.50;;;;;;;;;;5061798;28;20032;-61
2021/06/20 10:52:38;;;;;;;0.45;0.20;;;;;;;;;;5057273;28;20043;-61
2021/06/20 10:55:14;;;;;;;1.25;0.22;;;;;;;;;;5053148;28;21430;-62
2021/06/20 10:57:45;;;;;;;3.17;0.60;;;;;;;;;;5054142;28;20439;-62
2021/06/20 11:00:14;;;;;;;4.20;0.63;;;;;;;;;;5072026;28;20992;-61
2021/06/20 11:02:39;;;;;;;0.88;0.38;;;;;;;;;;5057878;28;20024;-63
2021/06/20 11:05:05;;;;;;;2.30;0.47;;;;;;;;;;5057286;28;20055;-61
2021/06/20 11:07:31;;;;;;;1.05;0.20;;;;;;;;;;5028694;28;20038;-62
2021/06/20 11:09:59;;;;;;;1.55;0.90;;;;;;;;;;5056122;28;20032;-61
2021/06/20 11:12:26;;;;;;;1.17;0.40;;;;;;;;;;5068095;28;20036;-64
2021/06/20 11:14:54;;;;;;;3.15;0.50;;;;;;;;;;5054418;28;20028;-62
2021/06/20 11:17:32;;;;;;;2.88;0.77;;;;;;;;;;5055388;28;20506;-62
2021/06/20 11:20:09;;;;;;;5.35;0.90;;;;;;;;;;5054233;28;20039;-61
2021/06/20 11:22:35;;;;;;;3.60;0.75;;;;;;;;;;5053345;28;20763;-61
2021/06/20 11:25:00;;;;;;;1.90;0.75;;;;;;;;;;5051440;28;20071;-63
2021/06/20 11:27:35;;;;;;;1.33;0.50;;;;;;;;;;5053447;28;20136;-62
2021/06/20 11:30:03;;;;;;;3.17;0.82;;;;;;;;;;5054101;28;20504;-62
2021/06/20 11:32:34;;;;;;;4.82;0.80;;;;;;;;;;5053443;28;20036;-62
2021/06/20 11:35:02;;;;;;;4.65;0.90;;;;;;;;;;5053180;28;20050;-62
2021/06/20 11:37:58;;;;;;;2.13;0.63;;;;;;;;;;5054530;28;20036;-62
2021/06/20 11:40:25;;;;;;;1.27;0.47;;;;;;;;;;5036370;28;20050;-61
2021/06/20 11:42:54;;;;;;;6.45;1.00;;;;;;;;;;5054135;28;20082;-62
2021/06/20 11:45:27;;;;;;;3.97;0.63;;;;;;;;;;5053184;28;20115;-61
2021/06/20 11:47:57;;;;;;;2.00;0.70;;;;;;;;;;5052575;28;20041;-63
2021/06/20 11:50:26;;;;;;;6.88;0.93;;;;;;;;;;5053223;28;20114;-62
2021/06/20 11:53:03;;;;;;;1.98;0.70;;;;;;;;;;5056126;28;20263;-63
2021/06/20 11:55:33;;;;;;;3.10;0.98;;;;;;;;;;5054122;28;20032;-62
2021/06/20 11:58:05;;;;;;;4.45;0.88;;;;;;;;;;5068207;28;20031;-63
2021/06/20 12:00:31;;;;;;;1.70;0.43;;;;;;;;;;5058575;28;20105;-62
2021/06/20 12:03:03;;;;;;;3.88;0.60;;;;;;;;;;5053397;28;20067;-63
2021/06/20 12:05:29;;;;;;;1.80;0.75;;;;;;;;;;5054564;28;20209;-63
2021/06/20 12:08:02;;;;;;;3.97;1.30;;;;;;;;;;5052442;28;20029;-63
2021/06/20 12:10:29;;;;;;;3.60;0.70;;;;;;;;;;5044083;28;20036;-62
2021/06/20 12:13:04;;;;;;;4.78;0.90;;;;;;;;;;5050625;28;20020;-64
2021/06/20 12:15:34;;;;;;;2.72;0.88;;;;;;;;;;5050206;28;20062;-62
2021/06/20 12:18:12;;;;;;;4.15;1.00;;;;;;;;;;5036590;28;20519;-63
2021/06/20 12:20:42;;;;;;;2.33;0.82;;;;;;;;;;5039605;28;20043;-62
2021/06/20 12:23:09;;;;;;;1.88;0.80;;;;;;;;;;5048047;28;20044;-62
2021/06/20 12:25:49;;;;;;;2.58;0.88;;;;;;;;;;5049797;28;20058;-63
2021/06/20 12:28:20;;;;;;;2.92;1.60;;;;;;;;;;5049535;28;20281;-63
2021/06/20 12:30:49;;;;;;;5.70;0.98;;;;;;;;;;5022553;28;20033;-61
2021/06/20 12:33:20;;;;;;;7.80;1.10;;;;;;;;;;5048630;28;20155;-62
2021/06/20 12:35:55;;;;;;;8.47;1.40;;;;;;;;;;5049209;28;20025;-62
2021/06/20 12:38:24;;;;;;;3.13;1.17;;;;;;;;;;5052111;28;20093;-61
2021/06/20 12:40:52;;;;;;;9.43;2.05;;;;;;;;;;5050717;28;20024;-63
2021/06/20 12:43:19;;;;;;;4.03;1.05;;;;;;;;;;5050031;28;20221;-62
2021/06/20 12:46:07;;;;;;;6.68;2.05;;;;;;;;;;5051072;28;20036;-63
2021/06/20 12:48:38;;;;;;;5.45;1.15;;;;;;;;;;5040099;28;20183;-62
2021/06/20 12:51:11;;;;;;;7.78;1.63;;;;;;;;;;5044053;28;20032;-63
2021/06/20 12:53:38;;;;;;;6.03;1.27;;;;;;;;;;5069242;28;20028;-62
2021/06/20 12:56:05;;;;;;;6.82;1.70;;;;;;;;;;5053226;28;21033;-62
2021/06/20 12:58:31;;;;;;;5.55;1.30;;;;;;;;;;5056060;28;20040;-62
2021/06/20 13:00:58;;;;;;;6.10;1.75;;;;;;;;;;5055603;28;20027;-63
2021/06/20 13:03:26;;;;;;;5.82;0.93;;;;;;;;;;5053419;28;20028;-63
2021/06/20 13:05:58;;;;;;;6.57;1.20;;;;;;;;;;5053576;28;20975;-62
2021/06/20 13:08:29;;;;;;;3.75;1.02;;;;;;;;;;5044258;28;20384;-61
2021/06/20 13:11:00;;;;;;;3.20;1.20;;;;;;;;;;5058362;28;20997;-63
2021/06/20 13:13:26;;;;;;;2.00;0.77;;;;;;;;;;5050428;28;20020;-62
2021/06/20 13:15:51;;;;;;;5.95;1.10;;;;;;;;;;5052957;28;20624;-63
2021/06/20 13:18:17;;;;;;;2.33;0.88;;;;;;;;;;5043556;28;20150;-62
2021/06/20 13:20:43;;;;;;;4.18;0.98;;;;;;;;;;5057393;28;20580;-62
2021/06/20 13:23:12;;;;;;;6.97;1.08;;;;;;;;;;5058898;28;20701;-62
2021/06/20 13:25:39;;;;;;;1.35;0.68;;;;;;;;;;5057544;28;20036;-63
2021/06/20 13:28:09;;;;;;;7.82;0.80;;;;;;;;;;5056210;28;20045;-64
2021/06/20 13:30:38;;;;;;;4.90;0.57;;;;;;;;;;5059582;28;20087;-63
2021/06/20 13:33:03;;;;;;;5.03;0.90;;;;;;;;;;5041839;28;20783;-63
2021/06/20 13:35:33;;;;;;;2.45;0.70;;;;;;;;;;5055170;28;20040;-63
2021/06/20 13:38:01;;;;;;;3.65;1.00;;;;;;;;;;5057703;28;20040;-62
2021/06/20 13:40:30;;;;;;;4.07;1.13;;;;;;;;;;5046683;28;20505;-63
2021/06/20 13:42:56;;;;;;;4.85;1.42;;;;;;;;;;5056893;28;20112;-62
2021/06/20 13:45:25;;;;;;;4.65;1.05;;;;;;;;;;5059575;28;20037;-62
2021/06/20 13:47:53;;;;;;;3.00;0.80;;;;;;;;;;5059981;28;20123;-62
2021/06/20 13:50:19;;;;;;;3.33;0.90;;;;;;;;;;5054902;28;20032;-62
2021/06/20 13:52:45;;;;;;;5.47;1.10;;;;;;;;;;5061544;28;21163;-62
2021/06/20 13:55:11;;;;;;;8.18;1.23;;;;;;;;;;5057270;28;20051;-62
2021/06/20 13:57:39;;;;;;;6.15;1.05;;;;;;;;;;5057892;28;20032;-63
2021/06/20 14:00:09;;;;;;;4.60;2.60;;;;;;;;;;5057015;28;20085;-62
2021/06/20 14:02:37;;;;;;;5.85;2.83;;;;;;;;;;5060402;28;21144;-62
2021/06/20 14:05:08;;;;;;;3.25;1.30;;;;;;;;;;5056845;28;20876;-63
2021/06/20 14:07:38;;;;;;;5.38;1.63;;;;;;;;;;5056011;28;20085;-63
2021/06/20 14:10:08;;;;;;;3.85;1.10;;;;;;;;;;5057135;28;20034;-63
2021/06/20 14:12:36;;;;;;;2.72;0.70;;;;;;;;;;5058841;28;20039;-63
2021/06/20 14:15:06;;;;;;;2.05;0.98;;;;;;;;;;5059232;28;20054;-63
2021/06/20 14:17:32;;;;;;;1.73;0.73;;;;;;;;;;5055005;28;20488;-63
2021/06/20 14:20:00;;;;;;;4.13;1.00;;;;;;;;;;5044813;28;20077;-64
2021/06/20 14:22:28;;;;;;;3.42;0.93;;;;;;;;;;5055687;28;20033;-62
2021/06/20 14:24:56;;;;;;;3.00;0.85;;;;;;;;;;5071019;28;20036;-62
2021/06/20 14:27:24;;;;;;;3.10;0.80;;;;;;;;;;5056174;28;20032;-63
2021/06/20 14:29:49;;;;;;;6.00;0.88;;;;;;;;;;5071906;28;20069;-63
2021/06/20 14:32:15;;;;;;;1.08;0.68;;;;;;;;;;5054952;28;20055;-62
2021/06/20 14:34:41;;;;;;;5.88;0.90;;;;;;;;;;5052968;28;20029;-63
2021/06/20 14:37:08;;;;;;;2.35;0.82;;;;;;;;;;5055081;28;20043;-64
2021/06/20 14:39:34;;;;;;;4.07;0.75;;;;;;;;;;5057711;28;21993;-63
2021/06/20 14:42:02;;;;;;;2.40;1.02;;;;;;;;;;5054799;28;20967;-63
2021/06/20 14:44:35;;;;;;;2.33;1.15;;;;;;;;;;5055645;28;20101;-63